sensor_id;sensor_type;location;lat;lon;timestamp;pressure;altitude;pressure_sealevel;temperature;humidity
7075;BME280;3578;51.568;6.932;2022-07-09T00:01:48;55377.09;;;-144.14;99.88
7075;BME280;3578;51.568;6.932;2022-07-09T00:04:15;55343.00;;;-144.14;99.96
7075;BME280;3578;51.568;6.932;2022-07-09T00:06:42;55369.06;;;-144.14;99.98
7075;BME280;3578;51.568;6.932;2022-07-09T00:09:09;55381.09;;;-144.14;100.00
7075;BME280;3578;51.568;6.932;2022-07-09T00:11:36;55353.03;;;-144.14;100.00
7075;BME280;3578;51.568;6.932;2022-07-09T00:14:03;55322.94;;;-144.14;100.00
7075;BME280;3578;51.568;6.932;2022-07-09T00:16:31;55336.97;;;-144.14;100.00
7075;BME280;3578;51.568;6.932;2022-07-09T00:18:59;55328.94;;;-144.14;100.00
7075;BME280;3578;51.568;6.932;2022-07-09T00:21:26;55347.00;;;-144.14;100.00
7075;BME280;3578;51.568;6.932;2022-07-09T00:23:53;55324.94;;;-144.14;100.00
7075;BME280;3578;51.568;6.932;2022-07-09T00:26:20;55343.00;;;-144.14;100.00
7075;BME280;3578;51.568;6.932;2022-07-09T00:28:48;55322.94;;;-144.14;100.00
7075;BME280;3578;51.568;6.932;2022-07-09T00:31:15;55367.06;;;-144.14;100.00
7075;BME280;3578;51.568;6.932;2022-07-09T00:33:42;55332.97;;;-144.14;100.00
7075;BME280;3578;51.568;6.932;2022-07-09T00:36:10;55310.91;;;-144.14;100.00
7075;BME280;3578;51.568;6.932;2022-07-09T00:38:38;55330.97;;;-144.14;100.00
7075;BME280;3578;51.568;6.932;2022-07-09T00:41:05;55244.72;;;-144.14;100.00
7075;BME280;3578;51.568;6.932;2022-07-09T00:43:32;55312.91;;;-144.14;100.00
7075;BME280;3578;51.568;6.932;2022-07-09T00:45:59;55312.91;;;-144.14;100.00
7075;BME280;3578;51.568;6.932;2022-07-09T00:48:26;55262.78;;;-144.14;100.00
7075;BME280;3578;51.568;6.932;2022-07-09T00:50:53;55278.81;;;-144.14;100.00
7075;BME280;3578;51.568;6.932;2022-07-09T00:53:24;55264.78;;;-144.14;100.00
7075;BME280;3578;51.568;6.932;2022-07-09T00:55:52;55298.88;;;-144.14;100.00
7075;BME280;3578;51.568;6.932;2022-07-09T00:58:21;55274.81;;;-144.14;100.00
7075;BME280;3578;51.568;6.932;2022-07-09T01:00:49;55256.75;;;-144.14;100.00
7075;BME280;3578;51.568;6.932;2022-07-09T01:03:16;55230.69;;;-144.14;100.00
7075;BME280;3578;51.568;6.932;2022-07-09T01:05:43;55242.72;;;-144.14;100.00
7075;BME280;3578;51.568;6.932;2022-07-09T01:08:10;55250.75;;;-144.14;100.00
7075;BME280;3578;51.568;6.932;2022-07-09T01:10:39;55218.66;;;-144.14;100.00
7075;BME280;3578;51.568;6.932;2022-07-09T01:13:07;55238.72;;;-144.14;100.00
7075;BME280;3578;51.568;6.932;2022-07-09T01:15:34;55206.63;;;-144.14;100.00
7075;BME280;3578;51.568;6.932;2022-07-09T01:18:01;55188.59;;;-144.14;100.00
7075;BME280;3578;51.568;6.932;2022-07-09T01:20:30;55202.63;;;-144.14;100.00
7075;BME280;3578;51.568;6.932;2022-07-09T01:22:58;55182.56;;;-144.14;100.00
7075;BME280;3578;51.568;6.932;2022-07-09T01:25:37;55172.53;;;-144.14;100.00
7075;BME280;3578;51.568;6.932;2022-07-09T01:28:06;55210.63;;;-144.14;100.00
7075;BME280;3578;51.568;6.932;2022-07-09T01:30:36;55214.66;;;-144.14;100.00
7075;BME280;3578;51.568;6.932;2022-07-09T01:33:04;55158.50;;;-144.14;100.00
7075;BME280;3578;51.568;6.932;2022-07-09T01:35:32;55208.63;;;-144.14;100.00
7075;BME280;3578;51.568;6.932;2022-07-09T01:37:59;55206.63;;;-144.14;100.00
7075;BME280;3578;51.568;6.932;2022-07-09T01:40:26;55180.56;;;-144.14;100.00
7075;BME280;3578;51.568;6.932;2022-07-09T01:42:53;55164.53;;;-144.14;100.00
7075;BME280;3578;51.568;6.932;2022-07-09T01:45:21;55214.66;;;-144.14;100.00
7075;BME280;3578;51.568;6.932;2022-07-09T01:47:48;55218.66;;;-144.14;100.00
7075;BME280;3578;51.568;6.932;2022-07-09T01:50:15;55164.53;;;-144.14;100.00
7075;BME280;3578;51.568;6.932;2022-07-09T01:52:43;55206.63;;;-144.14;100.00
7075;BME280;3578;51.568;6.932;2022-07-09T01:55:10;55184.56;;;-144.14;100.00
7075;BME280;3578;51.568;6.932;2022-07-09T01:57:37;55208.63;;;-144.14;100.00
7075;BME280;3578;51.568;6.932;2022-07-09T02:00:06;55186.59;;;-144.14;100.00
7075;BME280;3578;51.568;6.932;2022-07-09T02:02:34;55190.59;;;-144.14;100.00
7075;BME280;3578;51.568;6.932;2022-07-09T02:05:01;55218.66;;;-144.14;100.00
7075;BME280;3578;51.568;6.932;2022-07-09T02:07:29;55204.63;;;-144.14;100.00
7075;BME280;3578;51.568;6.932;2022-07-09T02:09:57;55180.56;;;-144.14;100.00
7075;BME280;3578;51.568;6.932;2022-07-09T02:12:25;55198.59;;;-144.14;100.00
7075;BME280;3578;51.568;6.932;2022-07-09T02:14:53;55198.59;;;-144.14;100.00
7075;BME280;3578;51.568;6.932;2022-07-09T02:17:20;55232.69;;;-144.14;100.00
7075;BME280;3578;51.568;6.932;2022-07-09T02:19:47;55174.56;;;-144.14;100.00
7075;BME280;3578;51.568;6.932;2022-07-09T02:22:14;55250.75;;;-144.14;100.00
7075;BME280;3578;51.568;6.932;2022-07-09T02:24:41;55216.66;;;-144.14;100.00
7075;BME280;3578;51.568;6.932;2022-07-09T02:27:10;55182.56;;;-144.14;100.00
7075;BME280;3578;51.568;6.932;2022-07-09T02:29:37;55184.56;;;-144.14;100.00
7075;BME280;3578;51.568;6.932;2022-07-09T02:32:06;55190.59;;;-144.14;100.00
7075;BME280;3578;51.568;6.932;2022-07-09T02:34:35;55202.63;;;-144.14;100.00
7075;BME280;3578;51.568;6.932;2022-07-09T02:37:02;55184.56;;;-144.14;100.00
7075;BME280;3578;51.568;6.932;2022-07-09T02:39:29;55210.63;;;-144.14;100.00
7075;BME280;3578;51.568;6.932;2022-07-09T02:41:57;55182.56;;;-144.14;100.00
7075;BME280;3578;51.568;6.932;2022-07-09T02:44:25;55186.59;;;-144.14;100.00
7075;BME280;3578;51.568;6.932;2022-07-09T02:46:52;55142.47;;;-144.14;100.00
7075;BME280;3578;51.568;6.932;2022-07-09T02:49:19;55148.47;;;-144.14;100.00
7075;BME280;3578;51.568;6.932;2022-07-09T02:51:47;55154.50;;;-144.14;100.00
7075;BME280;3578;51.568;6.932;2022-07-09T02:54:14;55178.56;;;-144.14;100.00
7075;BME280;3578;51.568;6.932;2022-07-09T02:56:41;55154.50;;;-144.14;100.00
7075;BME280;3578;51.568;6.932;2022-07-09T02:59:08;55194.59;;;-144.14;100.00
7075;BME280;3578;51.568;6.932;2022-07-09T03:01:36;55210.63;;;-144.14;100.00
7075;BME280;3578;51.568;6.932;2022-07-09T03:04:03;55210.63;;;-144.14;100.00
7075;BME280;3578;51.568;6.932;2022-07-09T03:06:31;55234.72;;;-144.14;100.00
7075;BME280;3578;51.568;6.932;2022-07-09T03:08:58;55200.63;;;-144.14;100.00
7075;BME280;3578;51.568;6.932;2022-07-09T03:11:25;55216.66;;;-144.14;100.00
7075;BME280;3578;51.568;6.932;2022-07-09T03:13:52;55286.84;;;-144.14;100.00
7075;BME280;3578;51.568;6.932;2022-07-09T03:16:19;55274.81;;;-144.14;100.00
7075;BME280;3578;51.568;6.932;2022-07-09T03:18:48;55278.81;;;-144.14;100.00
7075;BME280;3578;51.568;6.932;2022-07-09T03:21:15;55280.81;;;-144.14;100.00
7075;BME280;3578;51.568;6.932;2022-07-09T03:23:42;55280.81;;;-144.14;100.00
7075;BME280;3578;51.568;6.932;2022-07-09T03:26:09;55322.94;;;-144.14;100.00
7075;BME280;3578;51.568;6.932;2022-07-09T03:28:37;55314.91;;;-144.14;100.00
7075;BME280;3578;51.568;6.932;2022-07-09T03:31:04;55276.81;;;-144.14;100.00
7075;BME280;3578;51.568;6.932;2022-07-09T03:33:31;55282.84;;;-144.14;100.00
7075;BME280;3578;51.568;6.932;2022-07-09T03:36:00;55286.84;;;-144.14;100.00
7075;BME280;3578;51.568;6.932;2022-07-09T03:38:27;55308.91;;;-144.14;100.00
7075;BME280;3578;51.568;6.932;2022-07-09T03:40:54;55198.59;;;-144.14;100.00
7075;BME280;3578;51.568;6.932;2022-07-09T03:43:22;55284.84;;;-144.14;100.00
7075;BME280;3578;51.568;6.932;2022-07-09T03:45:49;55244.72;;;-144.14;100.00
7075;BME280;3578;51.568;6.932;2022-07-09T03:48:16;55238.72;;;-144.14;100.00
7075;BME280;3578;51.568;6.932;2022-07-09T03:50:44;55258.78;;;-144.14;100.00
7075;BME280;3578;51.568;6.932;2022-07-09T03:53:12;55242.72;;;-144.14;100.00
7075;BME280;3578;51.568;6.932;2022-07-09T03:55:39;55224.69;;;-144.14;100.00
7075;BME280;3578;51.568;6.932;2022-07-09T03:58:06;55246.75;;;-144.14;100.00
7075;BME280;3578;51.568;6.932;2022-07-09T04:00:33;55234.72;;;-144.14;100.00
7075;BME280;3578;51.568;6.932;2022-07-09T04:03:00;55234.72;;;-144.14;100.00
7075;BME280;3578;51.568;6.932;2022-07-09T04:05:27;55202.63;;;-144.14;100.00
7075;BME280;3578;51.568;6.932;2022-07-09T04:07:54;55178.56;;;-144.14;100.00
7075;BME280;3578;51.568;6.932;2022-07-09T04:10:23;55242.72;;;-144.14;100.00
7075;BME280;3578;51.568;6.932;2022-07-09T04:12:50;55218.66;;;-144.14;100.00
7075;BME280;3578;51.568;6.932;2022-07-09T04:15:17;55260.78;;;-144.14;100.00
7075;BME280;3578;51.568;6.932;2022-07-09T04:17:45;55270.81;;;-144.14;100.00
7075;BME280;3578;51.568;6.932;2022-07-09T04:20:12;55318.94;;;-144.14;100.00
7075;BME280;3578;51.568;6.932;2022-07-09T04:22:39;55359.03;;;-144.14;100.00
7075;BME280;3578;51.568;6.932;2022-07-09T04:25:07;55361.03;;;-144.14;100.00
7075;BME280;3578;51.568;6.932;2022-07-09T04:27:35;55353.03;;;-144.14;100.00
7075;BME280;3578;51.568;6.932;2022-07-09T04:30:06;55355.03;;;-144.14;100.00
7075;BME280;3578;51.568;6.932;2022-07-09T04:32:33;55334.97;;;-144.14;100.00
7075;BME280;3578;51.568;6.932;2022-07-09T04:35:00;55371.06;;;-144.14;100.00
7075;BME280;3578;51.568;6.932;2022-07-09T04:37:27;55357.03;;;-144.14;100.00
7075;BME280;3578;51.568;6.932;2022-07-09T04:39:54;55367.06;;;-144.14;100.00
7075;BME280;3578;51.568;6.932;2022-07-09T04:42:21;55353.03;;;-144.14;100.00
7075;BME280;3578;51.568;6.932;2022-07-09T04:44:50;55387.09;;;-144.14;100.00
7075;BME280;3578;51.568;6.932;2022-07-09T04:47:17;55355.03;;;-144.14;100.00
7075;BME280;3578;51.568;6.932;2022-07-09T04:49:44;55347.00;;;-144.14;100.00
7075;BME280;3578;51.568;6.932;2022-07-09T04:52:11;55411.19;;;-144.14;100.00
7075;BME280;3578;51.568;6.932;2022-07-09T04:54:42;55397.13;;;-144.14;100.00
7075;BME280;3578;51.568;6.932;2022-07-09T04:57:09;55473.34;;;-144.14;100.00
7075;BME280;3578;51.568;6.932;2022-07-09T04:59:36;55453.28;;;-144.14;100.00
7075;BME280;3578;51.568;6.932;2022-07-09T05:02:05;55475.34;;;-144.14;100.00
7075;BME280;3578;51.568;6.932;2022-07-09T05:04:32;55475.34;;;-144.14;100.00
7075;BME280;3578;51.568;6.932;2022-07-09T05:06:59;55529.50;;;-144.14;100.00
7075;BME280;3578;51.568;6.932;2022-07-09T05:09:26;55541.53;;;-144.14;100.00
7075;BME280;3578;51.568;6.932;2022-07-09T05:11:53;55515.44;;;-144.14;100.00
7075;BME280;3578;51.568;6.932;2022-07-09T05:14:20;55601.69;;;-144.14;100.00
7075;BME280;3578;51.568;6.932;2022-07-09T05:16:47;55659.84;;;-144.14;100.00
7075;BME280;3578;51.568;6.932;2022-07-09T05:19:16;55685.91;;;-144.14;99.98
7075;BME280;3578;51.568;6.932;2022-07-09T05:21:43;55756.13;;;-144.14;99.84
7075;BME280;3578;51.568;6.932;2022-07-09T05:24:10;55792.22;;;-144.14;99.76
7075;BME280;3578;51.568;6.932;2022-07-09T05:26:36;55846.38;;;-144.14;99.44
7075;BME280;3578;51.568;6.932;2022-07-09T05:29:04;55842.34;;;-144.14;99.29
7075;BME280;3578;51.568;6.932;2022-07-09T05:31:31;55896.50;;;-144.14;99.12
7075;BME280;3578;51.568;6.932;2022-07-09T05:33:58;55896.50;;;-144.14;98.85
7075;BME280;3578;51.568;6.932;2022-07-09T05:36:27;55952.66;;;-144.14;98.79
7075;BME280;3578;51.568;6.932;2022-07-09T05:38:55;56008.81;;;-144.14;98.18
7075;BME280;3578;51.568;6.932;2022-07-09T05:41:22;56036.91;;;-144.14;97.72
7075;BME280;3578;51.568;6.932;2022-07-09T05:43:50;56079.03;;;-144.14;97.43
7075;BME280;3578;51.568;6.932;2022-07-09T05:46:17;56115.13;;;-144.14;97.33
7075;BME280;3578;51.568;6.932;2022-07-09T05:48:44;56147.22;;;-144.14;97.12
7075;BME280;3578;51.568;6.932;2022-07-09T05:51:11;56165.28;;;-144.14;96.90
7075;BME280;3578;51.568;6.932;2022-07-09T05:53:40;56209.41;;;-144.14;96.75
7075;BME280;3578;51.568;6.932;2022-07-09T05:56:07;56219.44;;;-144.14;96.43
7075;BME280;3578;51.568;6.932;2022-07-09T05:58:34;56261.56;;;-144.14;95.83
7075;BME280;3578;51.568;6.932;2022-07-09T06:01:03;56299.66;;;-144.14;95.64
7075;BME280;3578;51.568;6.932;2022-07-09T06:03:31;56295.66;;;-144.14;95.37
7075;BME280;3578;51.568;6.932;2022-07-09T06:05:58;56307.69;;;-144.14;94.83
7075;BME280;3578;51.568;6.932;2022-07-09T06:08:25;56319.72;;;-144.14;94.36
7075;BME280;3578;51.568;6.932;2022-07-09T06:10:54;56365.88;;;-144.14;94.43
7075;BME280;3578;51.568;6.932;2022-07-09T06:13:21;56353.81;;;-144.14;94.46
7075;BME280;3578;51.568;6.932;2022-07-09T06:15:48;56430.06;;;-144.14;94.78
7075;BME280;3578;51.568;6.932;2022-07-09T06:18:15;56486.22;;;-144.14;94.00
7075;BME280;3578;51.568;6.932;2022-07-09T06:20:42;56470.19;;;-144.14;93.08
7075;BME280;3578;51.568;6.932;2022-07-09T06:23:09;56516.31;;;-144.14;92.12
7075;BME280;3578;51.568;6.932;2022-07-09T06:25:36;56606.59;;;-144.14;90.01
7075;BME280;3578;51.568;6.932;2022-07-09T06:28:05;56650.72;;;-144.14;89.69
7075;BME280;3578;51.568;6.932;2022-07-09T06:30:33;56638.69;;;-144.14;89.25
7075;BME280;3578;51.568;6.932;2022-07-09T06:33:00;56634.66;;;-144.14;88.88
7075;BME280;3578;51.568;6.932;2022-07-09T06:35:27;56672.78;;;-144.14;89.60
7075;BME280;3578;51.568;6.932;2022-07-09T06:37:55;56650.72;;;-144.14;89.41
7075;BME280;3578;51.568;6.932;2022-07-09T06:40:22;56636.69;;;-144.14;88.34
7075;BME280;3578;51.568;6.932;2022-07-09T06:42:49;56640.69;;;-144.14;85.83
7075;BME280;3578;51.568;6.932;2022-07-09T06:45:17;56670.78;;;-144.14;85.61
7075;BME280;3578;51.568;6.932;2022-07-09T06:47:45;56710.91;;;-144.14;85.55
7075;BME280;3578;51.568;6.932;2022-07-09T06:50:12;56781.13;;;-144.14;86.12
7075;BME280;3578;51.568;6.932;2022-07-09T06:52:39;56849.31;;;-144.14;86.01
7075;BME280;3578;51.568;6.932;2022-07-09T06:55:07;56917.53;;;-144.14;83.90
7075;BME280;3578;51.568;6.932;2022-07-09T06:57:34;57003.81;;;-144.14;83.43
7075;BME280;3578;51.568;6.932;2022-07-09T07:00:02;56971.72;;;-144.14;81.97
7075;BME280;3578;51.568;6.932;2022-07-09T07:02:31;56971.72;;;-144.14;81.20
7075;BME280;3578;51.568;6.932;2022-07-09T07:04:58;56903.50;;;-144.14;80.55
7075;BME280;3578;51.568;6.932;2022-07-09T07:07:25;56837.28;;;-144.14;81.80
7075;BME280;3578;51.568;6.932;2022-07-09T07:09:52;56857.34;;;-144.14;81.62
7075;BME280;3578;51.568;6.932;2022-07-09T07:12:20;56903.50;;;-144.14;81.55
7075;BME280;3578;51.568;6.932;2022-07-09T07:14:47;56963.69;;;-144.14;80.17
7075;BME280;3578;51.568;6.932;2022-07-09T07:17:14;56989.78;;;-144.14;80.20
7075;BME280;3578;51.568;6.932;2022-07-09T07:19:43;57015.84;;;-144.14;79.10
7075;BME280;3578;51.568;6.932;2022-07-09T07:22:10;57112.16;;;-144.14;79.66
7075;BME280;3578;51.568;6.932;2022-07-09T07:24:37;57074.03;;;-144.14;78.82
7075;BME280;3578;51.568;6.932;2022-07-09T07:27:04;57064.00;;;-144.14;78.26
7075;BME280;3578;51.568;6.932;2022-07-09T07:29:31;57035.91;;;-144.14;77.22
7075;BME280;3578;51.568;6.932;2022-07-09T07:31:58;57116.16;;;-144.14;77.43
7075;BME280;3578;51.568;6.932;2022-07-09T07:34:26;57208.47;;;-144.14;76.98
7075;BME280;3578;51.568;6.932;2022-07-09T07:36:54;57373.00;;;-144.14;77.89
7075;BME280;3578;51.568;6.932;2022-07-09T07:39:21;57377.00;;;-144.14;75.45
7075;BME280;3578;51.568;6.932;2022-07-09T07:41:50;57334.88;;;-144.14;73.55
7075;BME280;3578;51.568;6.932;2022-07-09T07:44:17;57276.69;;;-144.14;73.58
7075;BME280;3578;51.568;6.932;2022-07-09T07:46:45;57332.88;;;-144.14;74.27
7075;BME280;3578;51.568;6.932;2022-07-09T07:49:12;57368.97;;;-144.14;73.90
7075;BME280;3578;51.568;6.932;2022-07-09T07:51:39;57413.13;;;-144.14;74.08
7075;BME280;3578;51.568;6.932;2022-07-09T07:54:08;57465.28;;;-144.14;72.16
7075;BME280;3578;51.568;6.932;2022-07-09T07:56:35;57601.75;;;-144.14;75.11
7075;BME280;3578;51.568;6.932;2022-07-09T07:59:04;57585.69;;;-144.14;74.32
7075;BME280;3578;51.568;6.932;2022-07-09T08:01:31;57459.28;;;-144.14;70.42
7075;BME280;3578;51.568;6.932;2022-07-09T08:03:58;57405.09;;;-144.14;71.09
7075;BME280;3578;51.568;6.932;2022-07-09T08:06:25;57336.88;;;-144.14;73.71
7075;BME280;3578;51.568;6.932;2022-07-09T08:08:52;57280.69;;;-144.14;75.44
7075;BME280;3578;51.568;6.932;2022-07-09T08:11:20;57332.88;;;-144.14;76.01
7075;BME280;3578;51.568;6.932;2022-07-09T08:13:47;57427.16;;;-144.14;74.13
7075;BME280;3578;51.568;6.932;2022-07-09T08:16:15;57356.94;;;-144.14;74.14
7075;BME280;3578;51.568;6.932;2022-07-09T08:18:42;57318.81;;;-144.14;74.55
7075;BME280;3578;51.568;6.932;2022-07-09T08:21:09;57373.00;;;-144.14;73.97
7075;BME280;3578;51.568;6.932;2022-07-09T08:23:36;57441.22;;;-144.14;73.27
7075;BME280;3578;51.568;6.932;2022-07-09T08:26:21;57461.28;;;-144.14;72.40
7075;BME280;3578;51.568;6.932;2022-07-09T08:28:49;57517.47;;;-144.14;71.95
7075;BME280;3578;51.568;6.932;2022-07-09T08:31:16;57565.63;;;-144.14;72.11
7075;BME280;3578;51.568;6.932;2022-07-09T08:33:43;57633.84;;;-144.14;72.43
7075;BME280;3578;51.568;6.932;2022-07-09T08:36:11;57780.34;;;-144.14;69.74
7075;BME280;3578;51.568;6.932;2022-07-09T08:38:38;57738.19;;;-144.14;66.15
7075;BME280;3578;51.568;6.932;2022-07-09T08:41:06;57537.53;;;-144.14;67.99
7075;BME280;3578;51.568;6.932;2022-07-09T08:43:36;57601.75;;;-144.14;71.83
7075;BME280;3578;51.568;6.932;2022-07-09T08:46:05;57647.91;;;-144.14;70.63
7075;BME280;3578;51.568;6.932;2022-07-09T08:48:33;57651.91;;;-144.14;71.17
7075;BME280;3578;51.568;6.932;2022-07-09T08:51:01;57611.78;;;-144.14;72.75
7075;BME280;3578;51.568;6.932;2022-07-09T08:53:29;57579.69;;;-144.14;71.26
7075;BME280;3578;51.568;6.932;2022-07-09T08:55:56;57641.88;;;-144.14;68.54
7075;BME280;3578;51.568;6.932;2022-07-09T08:58:24;57645.91;;;-144.14;68.23
7075;BME280;3578;51.568;6.932;2022-07-09T09:00:52;57736.19;;;-144.14;70.39
7075;BME280;3578;51.568;6.932;2022-07-09T09:03:21;57800.41;;;-144.14;67.42
7075;BME280;3578;51.568;6.932;2022-07-09T09:06:01;57810.44;;;-144.14;63.73
7075;BME280;3578;51.568;6.932;2022-07-09T09:08:34;58075.34;;;-144.14;63.57
7075;BME280;3578;51.568;6.932;2022-07-09T09:11:02;58103.44;;;-144.14;60.55
7075;BME280;3578;51.568;6.932;2022-07-09T09:13:30;58159.66;;;-144.14;61.94
7075;BME280;3578;51.568;6.932;2022-07-09T09:16:07;58119.50;;;-144.14;64.78
7075;BME280;3578;51.568;6.932;2022-07-09T09:18:35;58147.59;;;-144.14;63.59
7075;BME280;3578;51.568;6.932;2022-07-09T09:21:04;58107.47;;;-144.14;58.64
7075;BME280;3578;51.568;6.932;2022-07-09T09:23:42;57997.09;;;-144.14;57.65
7075;BME280;3578;51.568;6.932;2022-07-09T09:26:11;57938.88;;;-144.14;57.90
7075;BME280;3578;51.568;6.932;2022-07-09T09:28:53;57918.81;;;-144.14;58.95
7075;BME280;3578;51.568;6.932;2022-07-09T09:31:25;58025.19;;;-144.14;60.68
7075;BME280;3578;51.568;6.932;2022-07-09T09:33:56;58091.41;;;-144.14;60.63
7075;BME280;3578;51.568;6.932;2022-07-09T09:36:29;58009.13;;;-144.14;60.33
7075;BME280;3578;51.568;6.932;2022-07-09T09:39:11;57934.88;;;-144.14;57.80
7075;BME280;3578;51.568;6.932;2022-07-09T09:41:39;57971.00;;;-144.14;58.09
7075;BME280;3578;51.568;6.932;2022-07-09T09:44:09;57979.03;;;-144.14;57.62
7075;BME280;3578;51.568;6.932;2022-07-09T09:46:39;57886.72;;;-144.14;57.29
7075;BME280;3578;51.568;6.932;2022-07-09T09:49:08;58017.16;;;-144.14;58.77
7075;BME280;3578;51.568;6.932;2022-07-09T09:51:37;58117.50;;;-144.14;58.50
7075;BME280;3578;51.568;6.932;2022-07-09T09:54:05;58039.22;;;-144.14;56.90
7075;BME280;3578;51.568;6.932;2022-07-09T09:56:32;58055.28;;;-144.14;56.48
7075;BME280;3578;51.568;6.932;2022-07-09T09:59:00;58027.19;;;-144.14;57.53
7075;BME280;3578;51.568;6.932;2022-07-09T10:01:28;58083.38;;;-144.14;58.29
7075;BME280;3578;51.568;6.932;2022-07-09T10:03:57;58047.25;;;-144.14;57.83
7075;BME280;3578;51.568;6.932;2022-07-09T10:06:25;58031.19;;;-144.14;57.54
7075;BME280;3578;51.568;6.932;2022-07-09T10:08:53;58113.47;;;-144.14;55.88
7075;BME280;3578;51.568;6.932;2022-07-09T10:11:20;58280.06;;;-144.14;54.06
7075;BME280;3578;51.568;6.932;2022-07-09T10:13:55;58181.72;;;-144.14;54.19
7075;BME280;3578;51.568;6.932;2022-07-09T10:16:38;58099.44;;;-144.14;52.62
7075;BME280;3578;51.568;6.932;2022-07-09T10:19:07;58173.69;;;-144.14;56.19
7075;BME280;3578;51.568;6.932;2022-07-09T10:21:36;58338.28;;;-144.14;53.73
7075;BME280;3578;51.568;6.932;2022-07-09T10:24:05;58181.72;;;-144.14;51.96
7075;BME280;3578;51.568;6.932;2022-07-09T10:26:46;58334.25;;;-144.14;53.48
7075;BME280;3578;51.568;6.932;2022-07-09T10:29:21;58446.66;;;-144.14;52.54
7075;BME280;3578;51.568;6.932;2022-07-09T10:31:50;58458.69;;;-144.14;53.52
7075;BME280;3578;51.568;6.932;2022-07-09T10:37:06;58388.44;;;-144.14;55.59
7075;BME280;3578;51.568;6.932;2022-07-09T10:39:34;58356.34;;;-144.14;52.93
7075;BME280;3578;51.568;6.932;2022-07-09T10:42:03;58326.22;;;-144.14;54.26
7075;BME280;3578;51.568;6.932;2022-07-09T10:44:35;58464.72;;;-144.14;53.38
7075;BME280;3578;51.568;6.932;2022-07-09T10:47:03;58516.91;;;-144.14;54.13
7075;BME280;3578;51.568;6.932;2022-07-09T10:49:34;58555.06;;;-144.14;51.08
7075;BME280;3578;51.568;6.932;2022-07-09T10:52:03;58605.22;;;-144.14;51.42
7075;BME280;3578;51.568;6.932;2022-07-09T10:54:30;58591.19;;;-144.14;50.23
7075;BME280;3578;51.568;6.932;2022-07-09T10:56:58;58641.34;;;-144.14;49.56
7075;BME280;3578;51.568;6.932;2022-07-09T10:59:26;58661.44;;;-144.14;49.37
7075;BME280;3578;51.568;6.932;2022-07-09T11:01:54;58661.44;;;-144.14;48.49
7075;BME280;3578;51.568;6.932;2022-07-09T11:04:26;58619.28;;;-144.14;47.71
7075;BME280;3578;51.568;6.932;2022-07-09T11:06:55;58681.50;;;-144.14;47.11
7075;BME280;3578;51.568;6.932;2022-07-09T11:09:23;58641.34;;;-144.14;48.51
7075;BME280;3578;51.568;6.932;2022-07-09T11:11:52;58643.38;;;-144.14;47.04
7075;BME280;3578;51.568;6.932;2022-07-09T11:14:19;58689.53;;;-144.14;48.58
7075;BME280;3578;51.568;6.932;2022-07-09T11:16:54;58627.31;;;-144.14;48.67
7075;BME280;3578;51.568;6.932;2022-07-09T11:19:22;58563.06;;;-144.14;50.48
7075;BME280;3578;51.568;6.932;2022-07-09T11:21:49;58251.97;;;-144.14;50.97
7075;BME280;3578;51.568;6.932;2022-07-09T11:24:19;58115.50;;;-144.14;49.93
7075;BME280;3578;51.568;6.932;2022-07-09T11:26:49;57942.91;;;-144.14;51.65
7075;BME280;3578;51.568;6.932;2022-07-09T11:29:17;57838.53;;;-144.14;52.84
7075;BME280;3578;51.568;6.932;2022-07-09T11:31:49;57822.50;;;-144.14;54.16
7075;BME280;3578;51.568;6.932;2022-07-09T11:34:18;57724.16;;;-144.14;57.23
7075;BME280;3578;51.568;6.932;2022-07-09T11:36:47;57830.50;;;-144.14;59.01
7075;BME280;3578;51.568;6.932;2022-07-09T11:39:25;57854.59;;;-144.14;61.95
7075;BME280;3578;51.568;6.932;2022-07-09T11:41:54;57830.50;;;-144.14;63.05
7075;BME280;3578;51.568;6.932;2022-07-09T11:44:23;57926.84;;;-144.14;59.28
7075;BME280;3578;51.568;6.932;2022-07-09T11:47:07;57860.63;;;-144.14;58.36
7075;BME280;3578;51.568;6.932;2022-07-09T11:49:38;57866.63;;;-144.14;60.14
7075;BME280;3578;51.568;6.932;2022-07-09T11:52:18;57912.78;;;-144.14;60.87
7075;BME280;3578;51.568;6.932;2022-07-09T11:55:00;57852.59;;;-144.14;57.54
7075;BME280;3578;51.568;6.932;2022-07-09T11:57:30;57754.25;;;-144.14;60.51
7075;BME280;3578;51.568;6.932;2022-07-09T11:59:58;57659.94;;;-144.14;60.67
7075;BME280;3578;51.568;6.932;2022-07-09T12:02:28;57609.78;;;-144.14;63.76
7075;BME280;3578;51.568;6.932;2022-07-09T12:04:56;57509.44;;;-144.14;62.87
7075;BME280;3578;51.568;6.932;2022-07-09T12:07:23;57505.44;;;-144.14;66.00
7075;BME280;3578;51.568;6.932;2022-07-09T12:10:03;57565.63;;;-144.14;77.65
7075;BME280;3578;51.568;6.932;2022-07-09T12:12:32;57366.97;;;-144.14;79.99
7075;BME280;3578;51.568;6.932;2022-07-09T12:15:00;57154.28;;;-144.14;83.63
7075;BME280;3578;51.568;6.932;2022-07-09T12:17:29;56969.72;;;-144.14;86.89
7075;BME280;3578;51.568;6.932;2022-07-09T12:19:58;56907.50;;;-144.14;90.20
7075;BME280;3578;51.568;6.932;2022-07-09T12:22:26;56911.53;;;-144.14;91.98
7075;BME280;3578;51.568;6.932;2022-07-09T12:24:53;56889.47;;;-144.14;92.91
7075;BME280;3578;51.568;6.932;2022-07-09T12:27:21;56911.53;;;-144.14;94.50
7075;BME280;3578;51.568;6.932;2022-07-09T12:29:48;56817.22;;;-144.14;95.58
7075;BME280;3578;51.568;6.932;2022-07-09T12:32:15;56751.03;;;-144.14;93.62
7075;BME280;3578;51.568;6.932;2022-07-09T12:34:42;56706.91;;;-144.14;93.60
7075;BME280;3578;51.568;6.932;2022-07-09T12:37:10;56672.78;;;-144.14;93.66
7075;BME280;3578;51.568;6.932;2022-07-09T12:39:37;56712.91;;;-144.14;93.58
7075;BME280;3578;51.568;6.932;2022-07-09T12:42:04;56686.84;;;-144.14;93.77
7075;BME280;3578;51.568;6.932;2022-07-09T12:44:33;56678.81;;;-144.14;94.76
7075;BME280;3578;51.568;6.932;2022-07-09T12:47:00;56658.75;;;-144.14;95.58
7075;BME280;3578;51.568;6.932;2022-07-09T12:49:27;56666.78;;;-144.14;95.90
7075;BME280;3578;51.568;6.932;2022-07-09T12:51:54;56692.84;;;-144.14;96.09
7075;BME280;3578;51.568;6.932;2022-07-09T12:54:21;56700.88;;;-144.14;96.11
7075;BME280;3578;51.568;6.932;2022-07-09T12:56:48;56734.97;;;-144.14;96.41
7075;BME280;3578;51.568;6.932;2022-07-09T12:59:16;56751.03;;;-144.14;96.31
7075;BME280;3578;51.568;6.932;2022-07-09T13:01:46;56931.59;;;-144.14;95.96
7075;BME280;3578;51.568;6.932;2022-07-09T13:04:13;56999.81;;;-144.14;95.47